Stony Point, North Carolina
Current Conditions -  °F | °C
As of 8:35 PM on Saturday 20 Dec 2014 (Local Time) from KSVH Reporting Station
Overcast Overcast  
Wind Chill: 38°   Ceiling: 2300
Heat Index: 41°   Visibility: 10mi
Dew Point: 33°   Wind: 5mph
Humidity: 74%   Direction: 100°E
Pressure: 30.23"   Gusts: NA
Location:  35.86°N, 81.05°W
Report Text: KSVH 210135Z AUTO 10004KT 10SM OVC023 05/01 A3023 RMK AO2 T00480005
Loading
Personal Weather Stations






























Interactive Weather Map New forecast layout! Learn more

10-Day Weather Forecast

Advertisements
Track Severe Weather on mobile